createdAt,value
2023-04-12T00:01:36.231Z,66.04
2023-04-12T00:04:05.247Z,66.18
2023-04-12T00:06:33.352Z,66.23
2023-04-12T00:09:02.513Z,66.22
2023-04-12T00:11:31.634Z,66.35
2023-04-12T00:13:59.547Z,66.34
2023-04-12T00:16:27.487Z,66.24
2023-04-12T00:18:55.505Z,66.27
2023-04-12T00:21:24.079Z,66.34
2023-04-12T00:23:51.927Z,66.28
2023-04-12T00:26:21.825Z,66.32
2023-04-12T00:28:50.382Z,66.10
2023-04-12T00:31:20.560Z,66.06
2023-04-12T00:33:48.594Z,66.01
2023-04-12T00:36:17.419Z,66.09
2023-04-12T00:38:48.210Z,66.23
2023-04-12T00:41:16.247Z,66.12
2023-04-12T00:43:44.164Z,66.10
2023-04-12T00:46:12.626Z,66.14
2023-04-12T00:48:40.830Z,66.18
2023-04-12T00:51:09.457Z,65.92
2023-04-12T00:53:39.999Z,66.04
2023-04-12T00:56:08.325Z,65.89
2023-04-12T00:58:36.473Z,65.86
2023-04-12T01:01:04.739Z,65.62
2023-04-12T01:03:32.865Z,65.69
2023-04-12T01:06:21.215Z,65.64
2023-04-12T01:09:08.415Z,65.80
2023-04-12T01:11:44.789Z,66.10
2023-04-12T01:14:28.553Z,66.13
2023-04-12T01:17:04.747Z,66.25
2023-04-12T01:19:35.083Z,66.42
2023-04-12T01:22:38.702Z,66.41
2023-04-12T01:25:32.619Z,66.45
2023-04-12T01:28:04.591Z,66.49
2023-04-12T01:30:33.983Z,66.45
2023-04-12T01:33:05.646Z,65.86
2023-04-12T01:35:35.147Z,65.58
2023-04-12T01:38:04.398Z,65.51
2023-04-12T01:40:32.683Z,65.40
2023-04-12T01:43:12.126Z,65.35
2023-04-12T01:45:40.490Z,65.30
2023-04-12T01:48:11.997Z,65.40
2023-04-12T01:51:02.597Z,65.39
2023-04-12T01:53:39.877Z,65.52
2023-04-12T01:56:10.108Z,65.58
2023-04-12T01:58:40.334Z,65.43
2023-04-12T02:01:10.717Z,65.33
2023-04-12T02:03:42.773Z,65.35
2023-04-12T02:06:11.473Z,65.33
2023-04-12T02:08:39.300Z,65.37
2023-04-12T02:11:14.747Z,65.20
2023-04-12T02:13:44.923Z,65.32
2023-04-12T02:16:14.222Z,65.22
2023-04-12T02:18:42.393Z,64.99
2023-04-12T02:21:11.161Z,64.85
2023-04-12T02:23:38.998Z,64.84
2023-04-12T02:26:07.678Z,64.86
2023-04-12T02:28:37.368Z,64.87
2023-04-12T02:31:06.835Z,64.87
2023-04-12T02:33:35.746Z,65.01
2023-04-12T02:36:04.543Z,65.03
2023-04-12T02:38:32.443Z,65.06
2023-04-12T02:41:02.124Z,65.09
2023-04-12T02:43:33.066Z,64.92
2023-04-12T02:46:03.805Z,64.91
2023-04-12T02:48:36.317Z,64.81
2023-04-12T02:51:04.824Z,64.70
2023-04-12T02:53:33.212Z,64.57
2023-04-12T02:56:12.110Z,64.83
2023-04-12T02:58:40.169Z,64.51
2023-04-12T03:01:08.310Z,64.20
2023-04-12T03:03:50.165Z,64.23
2023-04-12T03:06:32.143Z,64.38
2023-04-12T03:09:00.487Z,64.50
2023-04-12T03:11:28.696Z,64.35
2023-04-12T03:13:57.133Z,64.38
2023-04-12T03:16:30.197Z,64.63
2023-04-12T03:19:06.642Z,64.88
2023-04-12T03:21:35.625Z,64.85
2023-04-12T03:24:04.545Z,64.96
2023-04-12T03:26:33.196Z,64.70
2023-04-12T03:29:11.443Z,64.55
2023-04-12T03:31:40.342Z,64.53
2023-04-12T03:34:09.849Z,64.46
2023-04-12T03:36:41.730Z,64.52
2023-04-12T03:39:29.418Z,64.84
2023-04-12T03:41:57.346Z,64.87
2023-04-12T03:44:29.141Z,64.52
2023-04-12T03:46:58.063Z,64.46
2023-04-12T03:49:26.475Z,64.44
2023-04-12T03:51:54.515Z,64.25
2023-04-12T03:54:23.108Z,64.41
2023-04-12T03:57:12.176Z,64.33
2023-04-12T03:59:45.366Z,64.48
2023-04-12T04:02:13.448Z,64.31
2023-04-12T04:04:46.587Z,64.04
2023-04-12T04:07:17.498Z,64.08
2023-04-12T04:09:46.648Z,64.00
2023-04-12T04:12:15.127Z,64.01
2023-04-12T04:14:46.126Z,64.02
2023-04-12T04:17:19.461Z,64.19
2023-04-12T04:19:48.053Z,64.21
2023-04-12T04:22:17.896Z,64.17
2023-04-12T04:24:48.332Z,64.17
2023-04-12T04:27:17.109Z,64.17
2023-04-12T04:29:45.732Z,64.19
2023-04-12T04:32:16.063Z,64.20
2023-04-12T04:34:44.845Z,64.05
2023-04-12T04:37:17.458Z,63.90
2023-04-12T04:39:46.531Z,64.08
2023-04-12T04:42:15.289Z,64.07
2023-04-12T04:45:05.553Z,64.03
2023-04-12T04:47:38.932Z,64.03
2023-04-12T04:50:07.821Z,64.08
2023-04-12T04:52:37.797Z,64.07
2023-04-12T04:55:11.373Z,64.23
2023-04-12T04:57:41.178Z,64.43
2023-04-12T05:00:14.054Z,64.28
2023-04-12T05:02:45.888Z,64.27
2023-04-12T05:05:17.644Z,64.08
2023-04-12T05:07:46.208Z,63.93
2023-04-12T05:10:14.235Z,63.95
2023-04-12T05:12:42.407Z,63.72
2023-04-12T05:15:12.249Z,63.76
2023-04-12T05:17:41.818Z,63.82
2023-04-12T05:20:11.086Z,63.85
2023-04-12T05:22:40.155Z,63.92
2023-04-12T05:25:08.481Z,64.10
2023-04-12T05:27:40.822Z,63.87
2023-04-12T05:30:09.660Z,63.80
2023-04-12T05:32:37.526Z,63.87
2023-04-12T05:35:06.220Z,63.68
2023-04-12T05:37:35.287Z,63.76
2023-04-12T05:40:05.922Z,63.85
2023-04-12T05:42:34.233Z,63.75
2023-04-12T05:45:02.212Z,63.66
2023-04-12T05:47:31.136Z,63.86
2023-04-12T05:49:59.170Z,63.89
2023-04-12T05:52:28.563Z,63.83
2023-04-12T05:54:57.092Z,63.97
2023-04-12T05:57:25.454Z,63.93
2023-04-12T05:59:53.363Z,63.62
2023-04-12T06:02:21.484Z,63.26
2023-04-12T06:04:51.116Z,62.89
2023-04-12T06:07:21.449Z,62.72
2023-04-12T06:09:50.114Z,62.45
2023-04-12T06:12:18.893Z,62.53
2023-04-12T06:14:47.435Z,62.66
2023-04-12T06:17:15.582Z,62.75
2023-04-12T06:19:43.634Z,62.23
2023-04-12T06:22:11.719Z,62.10
2023-04-12T06:24:41.464Z,62.31
2023-04-12T06:27:10.892Z,62.36
2023-04-12T06:29:39.100Z,62.39
2023-04-12T06:32:07.250Z,62.41
2023-04-12T06:34:35.706Z,62.09
2023-04-12T06:37:07.900Z,62.07
2023-04-12T06:39:35.912Z,61.80
2023-04-12T06:42:03.939Z,62.10
2023-04-12T06:44:33.431Z,62.00
2023-04-12T06:47:01.325Z,61.81
2023-04-12T06:49:29.554Z,61.82
2023-04-12T06:51:57.526Z,61.71
2023-04-12T06:54:25.553Z,61.28
2023-04-12T06:56:53.468Z,60.98
2023-04-12T06:59:21.378Z,60.92
2023-04-12T07:01:49.265Z,60.77
2023-04-12T07:04:17.465Z,60.42
2023-04-12T07:06:45.558Z,59.81
2023-04-12T07:09:13.448Z,59.53
2023-04-12T07:11:41.660Z,59.74
2023-04-12T07:14:09.520Z,59.64
2023-04-12T07:16:37.470Z,59.33
2023-04-12T07:19:05.425Z,59.11
2023-04-12T07:21:33.389Z,58.88
2023-04-12T07:24:01.681Z,58.65
2023-04-12T07:26:31.285Z,58.63
2023-04-12T07:28:59.403Z,58.53
2023-04-12T07:31:30.727Z,58.50
2023-04-12T07:33:58.790Z,57.92
2023-04-12T07:36:27.520Z,56.69
2023-04-12T07:38:55.958Z,55.62
2023-04-12T07:41:24.522Z,54.82
2023-04-12T07:43:52.956Z,54.64
2023-04-12T07:46:21.100Z,54.27
2023-04-12T07:48:49.221Z,54.19
2023-04-12T07:51:17.130Z,54.39
2023-04-12T07:53:48.550Z,53.43
2023-04-12T07:56:16.632Z,52.88
2023-04-12T07:58:44.546Z,51.14
2023-04-12T08:01:13.590Z,50.69
2023-04-12T08:03:41.828Z,50.78
2023-04-12T08:06:10.248Z,50.02
2023-04-12T08:08:38.467Z,49.85
2023-04-12T08:11:06.667Z,48.86
2023-04-12T08:13:35.832Z,48.94
2023-04-12T08:16:04.101Z,49.75
2023-04-12T08:18:31.993Z,49.99
2023-04-12T08:20:59.897Z,49.13
2023-04-12T08:23:27.902Z,48.24
2023-04-12T08:26:03.730Z,47.02
2023-04-12T08:28:32.047Z,47.55
2023-04-12T08:31:00.203Z,46.52
2023-04-12T08:33:28.221Z,46.81
2023-04-12T08:35:57.047Z,47.55
2023-04-12T08:38:37.303Z,47.24
2023-04-12T08:41:09.990Z,47.04
2023-04-12T08:43:38.162Z,46.99
2023-04-12T08:46:07.647Z,46.95
2023-04-12T08:48:36.769Z,47.32
2023-04-12T08:51:05.813Z,47.28
2023-04-12T08:53:33.834Z,47.24
2023-04-12T08:56:02.103Z,46.57
2023-04-12T08:58:31.299Z,46.78
2023-04-12T09:01:00.628Z,47.02
2023-04-12T09:03:33.294Z,46.68
2023-04-12T09:06:05.432Z,45.55
2023-04-12T09:08:34.135Z,43.53
2023-04-12T09:11:02.737Z,42.97
2023-04-12T09:13:35.769Z,41.23
2023-04-12T09:16:04.110Z,39.54
2023-04-12T09:18:49.384Z,39.18
2023-04-12T09:21:18.402Z,39.63
2023-04-12T09:24:03.551Z,38.89
2023-04-12T09:26:32.090Z,38.89
2023-04-12T09:28:59.953Z,39.39
2023-04-12T09:31:28.066Z,39.07
2023-04-12T09:34:09.190Z,38.45
2023-04-12T09:36:41.350Z,36.91
2023-04-12T09:39:09.358Z,34.97
2023-04-12T09:41:37.955Z,35.37
2023-04-12T09:44:05.872Z,35.71
2023-04-12T09:46:34.133Z,35.82
2023-04-12T09:49:03.593Z,35.63
2023-04-12T09:51:36.637Z,34.50
2023-04-12T09:54:06.935Z,33.21
2023-04-12T09:56:36.735Z,33.83
2023-04-12T09:59:07.351Z,34.71
2023-04-12T10:01:39.489Z,35.77
2023-04-12T10:04:09.392Z,36.60
2023-04-12T10:06:38.010Z,36.28
2023-04-12T10:09:06.901Z,35.75
2023-04-12T10:11:36.043Z,34.38
2023-04-12T10:14:04.107Z,33.70
2023-04-12T10:16:34.257Z,33.28
2023-04-12T10:19:04.221Z,31.95
2023-04-12T10:21:32.383Z,32.47
2023-04-12T10:24:01.006Z,33.24
2023-04-12T10:26:29.159Z,33.06
2023-04-12T10:29:23.915Z,34.01
2023-04-12T10:31:53.091Z,34.42
2023-04-12T10:34:31.432Z,34.13
2023-04-12T10:37:00.979Z,33.47
2023-04-12T10:39:43.456Z,32.91
2023-04-12T10:42:28.135Z,33.02
2023-04-12T10:45:19.733Z,33.19
2023-04-12T10:48:04.349Z,33.37
2023-04-12T10:50:35.493Z,34.41
2023-04-12T10:53:13.249Z,34.75
2023-04-12T10:55:44.495Z,34.81
2023-04-12T10:58:48.485Z,35.33
2023-04-12T11:01:18.946Z,35.28
2023-04-12T11:04:10.014Z,34.23
2023-04-12T11:06:49.528Z,33.34
2023-04-12T11:09:51.333Z,32.50
2023-04-12T11:12:27.865Z,32.01
2023-04-12T11:15:01.420Z,31.87
2023-04-12T11:17:38.027Z,31.71
2023-04-12T11:20:11.577Z,31.63
2023-04-12T11:22:40.967Z,31.46
2023-04-12T11:25:09.990Z,32.25
2023-04-12T11:27:38.163Z,32.78
2023-04-12T11:30:07.217Z,32.80
2023-04-12T11:32:41.539Z,33.18
2023-04-12T11:35:09.879Z,33.64
2023-04-12T11:37:39.293Z,34.10
2023-04-12T11:40:09.491Z,34.27
2023-04-12T11:42:40.016Z,33.88
2023-04-12T11:45:15.747Z,33.29
2023-04-12T11:47:46.857Z,32.91
2023-04-12T11:50:28.755Z,31.99
2023-04-12T11:53:10.558Z,31.35
2023-04-12T11:55:38.573Z,30.92
2023-04-12T11:58:07.293Z,31.53
2023-04-12T12:00:35.603Z,30.74
2023-04-12T12:03:07.643Z,30.26
2023-04-12T12:05:41.256Z,30.40
2023-04-12T12:08:09.729Z,30.22
2023-04-12T12:10:55.590Z,29.83
2023-04-12T12:13:53.829Z,30.11
2023-04-12T12:16:28.400Z,30.35
2023-04-12T12:18:58.029Z,30.58
2023-04-12T12:21:27.499Z,31.04
2023-04-12T12:23:57.075Z,31.75
2023-04-12T12:26:31.070Z,32.12
2023-04-12T12:29:02.912Z,31.88
2023-04-12T12:31:31.413Z,32.41
2023-04-12T12:34:05.708Z,32.81
2023-04-12T12:36:38.986Z,33.46
2023-04-12T12:39:15.497Z,33.92
2023-04-12T12:41:43.557Z,34.19
2023-04-12T12:44:12.321Z,34.53
2023-04-12T12:46:53.522Z,34.76
2023-04-12T12:49:25.413Z,34.92
2023-04-12T12:51:53.512Z,35.24
2023-04-12T12:54:38.797Z,35.31
2023-04-12T12:57:07.934Z,35.34
2023-04-12T12:59:35.931Z,35.41
2023-04-12T13:02:04.086Z,35.45
2023-04-12T13:04:32.620Z,35.58
2023-04-12T13:07:00.804Z,35.75
2023-04-12T13:09:28.672Z,35.88
2023-04-12T13:11:57.748Z,36.04
2023-04-12T13:14:25.741Z,35.75
2023-04-12T13:16:54.450Z,35.52
2023-04-12T13:19:22.457Z,35.35
2023-04-12T13:21:52.557Z,35.65
2023-04-12T13:24:21.184Z,35.59
2023-04-12T13:26:49.259Z,35.55
2023-04-12T13:29:17.618Z,35.58
2023-04-12T13:31:45.546Z,35.38
2023-04-12T13:34:13.471Z,35.05
2023-04-12T13:36:41.489Z,35.11
2023-04-12T13:39:09.458Z,35.08
2023-04-12T13:41:37.691Z,34.64
2023-04-12T13:44:05.880Z,34.21
2023-04-12T13:46:33.972Z,34.50
2023-04-12T13:49:02.124Z,34.67
2023-04-12T13:51:30.410Z,34.26
2023-04-12T13:53:58.784Z,33.81
2023-04-12T13:56:28.845Z,34.15
2023-04-12T13:58:59.683Z,33.95
2023-04-12T14:01:27.879Z,34.22
2023-04-12T14:03:57.064Z,34.08
2023-04-12T14:06:25.251Z,33.99
2023-04-12T14:08:53.345Z,33.37
2023-04-12T14:11:24.083Z,33.28
2023-04-12T14:13:52.337Z,33.26
2023-04-12T14:16:20.523Z,32.85
2023-04-12T14:18:48.612Z,32.79
2023-04-12T14:21:16.854Z,32.31
2023-04-12T14:23:44.791Z,31.46
2023-04-12T14:26:16.474Z,31.58
2023-04-12T14:28:44.761Z,32.04
2023-04-12T14:31:15.061Z,32.34
2023-04-12T14:33:43.430Z,32.66
2023-04-12T14:36:11.446Z,32.38
2023-04-12T14:38:39.404Z,32.30
2023-04-12T14:41:09.303Z,32.49
2023-04-12T14:43:37.337Z,32.46
2023-04-12T14:46:05.489Z,32.24
2023-04-12T14:48:33.579Z,32.13
2023-04-12T14:51:01.451Z,32.30
2023-04-12T14:53:30.691Z,32.69
2023-04-12T14:56:00.606Z,32.85
2023-04-12T14:58:34.498Z,33.22
2023-04-12T15:01:02.593Z,33.13
2023-04-12T15:03:33.486Z,33.69
2023-04-12T15:06:01.670Z,33.85
2023-04-12T15:08:29.636Z,34.21
2023-04-12T15:10:57.505Z,34.42
2023-04-12T15:13:32.569Z,34.34
2023-04-12T15:16:02.165Z,33.86
2023-04-12T15:18:30.223Z,34.14
2023-04-12T15:21:00.356Z,34.54
2023-04-12T15:23:28.725Z,34.33
2023-04-12T15:26:02.660Z,34.43
2023-04-12T15:28:32.084Z,34.73
2023-04-12T15:31:01.154Z,34.86
2023-04-12T15:33:30.464Z,34.83
2023-04-12T15:36:01.526Z,34.99
2023-04-12T15:38:30.502Z,35.20
2023-04-12T15:41:02.109Z,35.35
2023-04-12T15:43:29.902Z,35.45
2023-04-12T15:45:57.975Z,35.63
2023-04-12T15:48:26.085Z,35.51
2023-04-12T15:50:58.332Z,35.67
2023-04-12T15:53:27.689Z,35.30
2023-04-12T15:55:56.000Z,35.47
2023-04-12T15:58:25.202Z,35.32
2023-04-12T16:00:54.376Z,34.86
2023-04-12T16:03:26.207Z,34.83
2023-04-12T16:05:54.933Z,34.69
2023-04-12T16:08:23.144Z,34.22
2023-04-12T16:10:51.136Z,34.40
2023-04-12T16:13:19.485Z,34.20
2023-04-12T16:15:47.881Z,34.40
2023-04-12T16:18:17.340Z,34.72
2023-04-12T16:20:45.322Z,35.12
2023-04-12T16:23:13.592Z,35.41
2023-04-12T16:25:41.558Z,35.52
2023-04-12T16:28:09.699Z,35.78
2023-04-12T16:30:37.814Z,36.04
2023-04-12T16:33:05.997Z,36.17
2023-04-12T16:35:34.596Z,36.50
2023-04-12T16:38:02.562Z,36.66
2023-04-12T16:43:17.489Z,36.92
2023-04-12T16:45:46.512Z,36.98
2023-04-12T16:48:14.840Z,36.80
2023-04-12T16:50:47.498Z,36.72
2023-04-12T16:53:18.549Z,36.29
2023-04-12T16:55:47.834Z,36.31
2023-04-12T16:58:16.029Z,36.26
2023-04-12T17:00:44.782Z,36.27
2023-04-12T17:03:13.149Z,36.47
2023-04-12T17:05:41.167Z,36.73
2023-04-12T17:08:09.750Z,36.70
2023-04-12T17:10:37.696Z,36.67
2023-04-12T17:13:05.719Z,36.77
2023-04-12T17:15:34.134Z,36.90
2023-04-12T17:18:09.597Z,36.95
2023-04-12T17:20:38.258Z,37.06
2023-04-12T17:23:07.528Z,37.06
2023-04-12T17:25:36.516Z,37.22
2023-04-12T17:28:05.251Z,37.29
2023-04-12T17:30:33.745Z,37.30
2023-04-12T17:33:01.732Z,37.76
2023-04-12T17:35:30.066Z,37.78
2023-04-12T17:37:58.065Z,37.78
2023-04-12T17:40:27.205Z,37.85
2023-04-12T17:42:55.278Z,37.92
2023-04-12T17:45:24.200Z,37.97
2023-04-12T17:47:52.557Z,38.20
2023-04-12T17:50:20.656Z,38.30
2023-04-12T17:52:49.133Z,38.52
2023-04-12T17:55:23.175Z,38.72
2023-04-12T17:57:53.107Z,38.86
2023-04-12T18:00:23.582Z,39.05
2023-04-12T18:02:52.041Z,39.18
2023-04-12T18:05:20.129Z,39.39
2023-04-12T18:07:49.980Z,39.53
2023-04-12T18:10:21.468Z,39.66
2023-04-12T18:12:50.226Z,39.92
2023-04-12T18:15:19.162Z,39.90
2023-04-12T18:17:47.323Z,40.21
2023-04-12T18:20:16.619Z,40.17
2023-04-12T18:22:45.907Z,40.48
2023-04-12T18:25:14.242Z,40.66
2023-04-12T18:27:42.296Z,40.71
2023-04-12T18:30:10.718Z,40.80
2023-04-12T18:32:39.088Z,41.09
2023-04-12T18:35:08.007Z,41.12
2023-04-12T18:37:37.248Z,41.55
2023-04-12T18:40:10.161Z,41.62
2023-04-12T18:42:38.112Z,41.87
2023-04-12T18:45:06.965Z,42.17
2023-04-12T18:47:35.471Z,42.33
2023-04-12T18:50:03.520Z,42.38
2023-04-12T18:52:31.532Z,42.90
2023-04-12T18:54:59.368Z,42.84
2023-04-12T18:57:27.281Z,42.92
2023-04-12T18:59:55.262Z,43.29
2023-04-12T19:02:23.488Z,43.70
2023-04-12T19:04:52.137Z,43.85
2023-04-12T19:07:20.118Z,43.94
2023-04-12T19:09:48.079Z,43.99
2023-04-12T19:12:16.436Z,44.06
2023-04-12T19:14:44.399Z,43.89
2023-04-12T19:17:12.573Z,44.17
2023-04-12T19:19:40.557Z,44.15
2023-04-12T19:22:08.564Z,44.88
2023-04-12T19:24:36.573Z,44.75
2023-04-12T19:27:04.674Z,45.24
2023-04-12T19:29:32.714Z,45.47
2023-04-12T19:32:02.440Z,46.15
2023-04-12T19:34:30.788Z,46.56
2023-04-12T19:36:58.933Z,46.81
2023-04-12T19:39:27.135Z,47.81
2023-04-12T19:41:55.366Z,47.92
2023-04-12T19:44:25.967Z,48.94
2023-04-12T19:46:53.985Z,49.10
2023-04-12T19:49:22.993Z,49.23
2023-04-12T19:51:53.767Z,49.50
2023-04-12T19:54:25.730Z,49.49
2023-04-12T19:56:55.344Z,49.48
2023-04-12T19:59:25.482Z,49.18
2023-04-12T20:01:55.004Z,49.33
2023-04-12T20:04:24.250Z,49.58
2023-04-12T20:06:53.266Z,49.50
2023-04-12T20:09:22.859Z,49.58
2023-04-12T20:11:51.189Z,49.85
2023-04-12T20:14:19.272Z,49.83
2023-04-12T20:16:47.515Z,49.81
2023-04-12T20:19:16.490Z,49.86
2023-04-12T20:21:45.409Z,49.97
2023-04-12T20:24:13.768Z,50.08
2023-04-12T20:26:41.871Z,50.30
2023-04-12T20:29:10.751Z,50.86
2023-04-12T20:31:38.816Z,50.62
2023-04-12T20:34:06.675Z,50.56
2023-04-12T20:36:34.723Z,50.77
2023-04-12T20:39:02.682Z,50.99
2023-04-12T20:41:30.614Z,50.94
2023-04-12T20:43:59.724Z,50.88
2023-04-12T20:46:27.649Z,51.39
2023-04-12T20:48:56.532Z,51.51
2023-04-12T20:51:24.982Z,51.79
2023-04-12T20:53:53.820Z,51.83
2023-04-12T20:56:42.153Z,52.32
2023-04-12T20:59:10.662Z,52.10
2023-04-12T21:01:38.700Z,52.50
2023-04-12T21:04:08.247Z,52.87
2023-04-12T21:06:37.703Z,52.73
2023-04-12T21:09:05.999Z,53.54
2023-04-12T21:11:33.998Z,53.74
2023-04-12T21:14:02.228Z,53.65
2023-04-12T21:16:30.928Z,53.75
2023-04-12T21:18:59.501Z,54.01
2023-04-12T21:21:28.649Z,54.15
2023-04-12T21:23:56.969Z,54.26
2023-04-12T21:26:25.789Z,54.73
2023-04-12T21:28:53.699Z,54.94
2023-04-12T21:31:22.127Z,54.96
2023-04-12T21:33:51.164Z,55.07
2023-04-12T21:36:19.929Z,55.41
2023-04-12T21:38:47.894Z,55.50
2023-04-12T21:41:16.281Z,55.69
2023-04-12T21:43:47.536Z,55.74
2023-04-12T21:46:15.684Z,55.63
2023-04-12T21:48:44.370Z,55.85
2023-04-12T21:51:12.580Z,55.84
2023-04-12T21:53:40.512Z,55.92
2023-04-12T21:56:08.917Z,56.11
2023-04-12T21:58:36.963Z,55.94
2023-04-12T22:01:05.154Z,56.30
2023-04-12T22:03:33.198Z,56.45
2023-04-12T22:06:04.916Z,56.49
2023-04-12T22:08:33.458Z,56.74
2023-04-12T22:11:01.549Z,56.75
2023-04-12T22:13:30.786Z,57.06
2023-04-12T22:16:00.874Z,57.28
2023-04-12T22:18:28.797Z,57.13
2023-04-12T22:20:57.685Z,57.37
2023-04-12T22:23:25.612Z,57.44
2023-04-12T22:25:58.507Z,57.81
2023-04-12T22:28:26.777Z,57.63
2023-04-12T22:30:57.288Z,57.61
2023-04-12T22:33:25.470Z,57.80
2023-04-12T22:35:53.495Z,57.69
2023-04-12T22:38:21.495Z,58.00
2023-04-12T22:40:49.542Z,57.93
2023-04-12T22:43:22.361Z,58.02
2023-04-12T22:45:54.162Z,58.33
2023-04-12T22:48:25.097Z,58.28
2023-04-12T22:50:54.659Z,58.56
2023-04-12T22:53:22.639Z,58.66
2023-04-12T22:55:56.649Z,58.59
2023-04-12T22:58:25.284Z,58.82
2023-04-12T23:00:53.485Z,58.84
2023-04-12T23:03:21.890Z,58.82
2023-04-12T23:05:50.467Z,58.97
2023-04-12T23:08:20.335Z,59.00
2023-04-12T23:10:49.595Z,59.31
2023-04-12T23:13:17.513Z,59.61
2023-04-12T23:15:45.575Z,59.53
2023-04-12T23:18:13.566Z,59.98
2023-04-12T23:20:44.926Z,59.87
2023-04-12T23:23:13.706Z,60.49
2023-04-12T23:25:41.884Z,60.66
2023-04-12T23:28:15.282Z,60.54
2023-04-12T23:30:44.687Z,60.82
2023-04-12T23:33:12.746Z,60.85
2023-04-12T23:35:41.746Z,60.67
2023-04-12T23:38:10.335Z,60.62
2023-04-12T23:40:38.229Z,60.71
2023-04-12T23:43:07.801Z,60.70
2023-04-12T23:45:39.525Z,60.51
2023-04-12T23:48:07.768Z,60.55
2023-04-12T23:50:35.785Z,60.69
2023-04-12T23:53:05.245Z,60.55
2023-04-12T23:55:33.103Z,60.47
2023-04-12T23:58:01.017Z,60.26
